Time;durP1;ratioP1;P1;durP2;ratioP2;P2;SDS_P1;SDS_P2;PMS_P1;PMS_P2;Temp;Humidity;BMP_temperature;BMP_pressure;BME280_temperature;BME280_humidity;BME280_pressure;Samples;Min_cycle;Max_cycle;Signal;HPM_P1;HPM_P2
2021/07/23 00:02:03;;;;;;;9.93;6.38;;;;;;;15.14;75.44;101930.50;5086750;28;20128;-72
2021/07/23 00:04:29;;;;;;;10.02;5.85;;;;;;;15.09;75.18;101931.25;5086903;28;20053;-72
2021/07/23 00:06:54;;;;;;;12.93;6.32;;;;;;;15.03;75.40;101926.84;5079083;28;20031;-72
2021/07/23 00:09:20;;;;;;;13.70;7.22;;;;;;;14.96;75.76;101929.72;5094549;28;20474;-72
2021/07/23 00:11:45;;;;;;;10.43;6.45;;;;;;;14.95;75.91;101927.28;5097427;28;20411;-72
2021/07/23 00:14:11;;;;;;;10.15;6.60;;;;;;;14.90;76.30;101927.19;5079187;28;20044;-72
2021/07/23 00:16:39;;;;;;;11.73;6.68;;;;;;;14.87;76.51;101930.38;5094530;28;20268;-72
2021/07/23 00:19:05;;;;;;;9.00;6.32;;;;;;;14.81;76.67;101930.31;5092611;28;20020;-72
2021/07/23 00:21:30;;;;;;;11.48;7.07;;;;;;;14.80;76.38;101927.88;5096226;28;20357;-72
2021/07/23 00:23:56;;;;;;;11.52;6.88;;;;;;;14.80;76.58;101923.28;5096523;28;20028;-72
2021/07/23 00:26:21;;;;;;;9.60;6.28;;;;;;;14.80;76.50;101925.97;5093715;28;20032;-71
2021/07/23 00:28:47;;;;;;;12.13;6.57;;;;;;;14.76;76.36;101924.84;5095911;28;20035;-72
2021/07/23 00:31:13;;;;;;;11.90;7.60;;;;;;;14.70;76.57;101927.69;5078426;28;20821;-72
2021/07/23 00:33:39;;;;;;;9.23;6.57;;;;;;;14.63;76.37;101919.78;5080121;28;20069;-72
2021/07/23 00:36:04;;;;;;;16.48;6.70;;;;;;;14.59;76.47;101915.13;5092359;28;20072;-72
2021/07/23 00:38:30;;;;;;;12.02;7.20;;;;;;;14.52;76.62;101916.09;5093056;28;20080;-72
2021/07/23 00:40:56;;;;;;;11.32;7.40;;;;;;;14.50;76.58;101922.81;5096568;28;20028;-72
2021/07/23 00:43:21;;;;;;;11.40;7.78;;;;;;;14.43;77.18;101917.59;5097337;28;20019;-72
2021/07/23 00:45:47;;;;;;;12.95;6.85;;;;;;;14.38;77.30;101920.19;5080307;28;20505;-72
2021/07/23 00:48:14;;;;;;;12.25;6.75;;;;;;;14.32;77.28;101913.06;5097208;28;20150;-72
2021/07/23 00:50:40;;;;;;;7.93;6.03;;;;;;;14.29;76.86;101918.13;5086526;28;20209;-72
2021/07/23 00:53:06;;;;;;;12.48;6.55;;;;;;;14.24;77.24;101924.25;5101748;28;20062;-72
2021/07/23 00:55:32;;;;;;;9.88;6.55;;;;;;;14.17;77.32;101923.56;5082757;28;20118;-72
2021/07/23 00:57:59;;;;;;;13.13;7.53;;;;;;;14.20;77.36;101923.94;5093520;28;20028;-72
2021/07/23 01:00:25;;;;;;;13.65;7.05;;;;;;;14.18;77.40;101923.34;5093997;28;20036;-72
2021/07/23 01:02:52;;;;;;;10.60;7.68;;;;;;;14.16;77.47;101917.38;5079179;28;20108;-72
2021/07/23 01:05:19;;;;;;;15.77;7.43;;;;;;;14.12;77.69;101918.09;5096146;28;20038;-72
2021/07/23 01:07:45;;;;;;;14.93;7.40;;;;;;;14.08;78.04;101925.84;5101259;28;20485;-72
2021/07/23 01:10:11;;;;;;;13.27;7.32;;;;;;;14.02;78.06;101931.41;5100334;28;20032;-72
2021/07/23 01:12:37;;;;;;;15.95;7.32;;;;;;;13.97;78.03;101932.13;5098432;28;20045;-72
2021/07/23 01:15:03;;;;;;;19.45;6.55;;;;;;;13.94;77.75;101929.09;5098560;28;20028;-72
2021/07/23 01:17:29;;;;;;;13.00;6.50;;;;;;;13.90;77.69;101928.75;5090126;28;20072;-72
2021/07/23 01:20:25;;;;;;;13.15;6.95;;;;;;;13.80;77.82;101934.75;5094729;28;20427;-72
2021/07/23 01:22:53;;;;;;;23.48;7.90;;;;;;;13.78;78.55;101931.50;5070676;28;20459;-72
2021/07/23 01:25:21;;;;;;;12.23;6.55;;;;;;;13.74;78.30;101934.91;5090176;28;20035;-72
2021/07/23 01:27:50;;;;;;;11.45;6.10;;;;;;;13.67;78.36;101928.88;5092385;28;20104;-72
2021/07/23 01:30:17;;;;;;;9.63;6.07;;;;;;;13.65;78.32;101925.59;5072253;28;20028;-72
2021/07/23 01:32:43;;;;;;;8.40;5.95;;;;;;;13.70;78.04;101934.59;5095716;28;20023;-72
2021/07/23 01:35:09;;;;;;;10.35;5.90;;;;;;;13.72;78.28;101931.66;5092619;28;20032;-72
2021/07/23 01:37:35;;;;;;;11.93;6.63;;;;;;;13.74;78.48;101924.97;5092132;28;20107;-71
2021/07/23 01:40:01;;;;;;;12.63;7.53;;;;;;;13.75;78.49;101929.28;5093638;28;20115;-71
2021/07/23 01:42:28;;;;;;;13.25;6.47;;;;;;;13.76;78.78;101932.78;5095945;28;20027;-71
2021/07/23 01:44:54;;;;;;;11.05;6.82;;;;;;;13.78;78.67;101919.91;5084316;28;20023;-72
2021/07/23 01:47:19;;;;;;;11.75;6.60;;;;;;;13.79;78.73;101918.84;5095723;28;20035;-73
2021/07/23 01:49:45;;;;;;;11.27;6.40;;;;;;;13.79;78.96;101921.53;5095850;28;20020;-72
2021/07/23 01:52:10;;;;;;;11.43;6.55;;;;;;;13.78;79.10;101925.28;5095916;28;20027;-72
2021/07/23 01:54:36;;;;;;;12.88;7.20;;;;;;;13.80;79.11;101928.56;5095049;28;20039;-73
2021/07/23 01:57:03;;;;;;;11.32;6.65;;;;;;;13.84;79.28;101918.97;5084460;28;20054;-72
2021/07/23 01:59:29;;;;;;;11.68;7.00;;;;;;;13.84;79.47;101919.78;5099029;28;20028;-72
2021/07/23 02:01:56;;;;;;;10.48;6.63;;;;;;;13.80;79.61;101912.41;5096986;28;20027;-73
2021/07/23 02:04:25;;;;;;;11.43;7.30;;;;;;;13.77;79.50;101918.28;5097465;28;20031;-72
2021/07/23 02:06:51;;;;;;;11.10;7.47;;;;;;;13.77;79.56;101915.56;5094001;28;20035;-73
2021/07/23 02:09:16;;;;;;;10.75;6.78;;;;;;;13.75;79.55;101913.13;5079941;28;20657;-72
2021/07/23 02:11:41;;;;;;;10.07;6.82;;;;;;;13.74;79.72;101918.75;5093805;28;20024;-72
2021/07/23 02:14:07;;;;;;;10.90;7.43;;;;;;;13.74;79.77;101913.38;5093693;28;20069;-72
2021/07/23 02:16:36;;;;;;;12.00;7.75;;;;;;;13.74;79.98;101914.19;5099284;28;20035;-72
2021/07/23 02:19:03;;;;;;;14.43;7.78;;;;;;;13.78;80.02;101915.34;5091563;28;20027;-72
2021/07/23 02:21:29;;;;;;;11.30;7.13;;;;;;;13.80;80.26;101917.78;5097137;28;20119;-72
2021/07/23 02:23:54;;;;;;;13.23;7.78;;;;;;;13.83;80.22;101920.03;5095260;28;20098;-73
2021/07/23 02:26:22;;;;;;;13.10;7.20;;;;;;;13.84;80.21;101921.66;5094472;28;20435;-72
2021/07/23 02:28:49;;;;;;;11.40;6.85;;;;;;;13.91;80.32;101922.31;5093193;28;20398;-72
2021/07/23 02:31:16;;;;;;;12.27;6.95;;;;;;;13.94;80.27;101919.13;5095795;28;21001;-72
2021/07/23 02:33:42;;;;;;;14.27;6.68;;;;;;;13.88;80.64;101914.72;5093942;28;20024;-72
2021/07/23 02:36:08;;;;;;;14.82;7.32;;;;;;;13.86;80.88;101908.75;5092810;28;20042;-72
2021/07/23 02:38:34;;;;;;;12.82;7.28;;;;;;;13.85;81.09;101912.50;5078063;28;20031;-72
2021/07/23 02:41:00;;;;;;;12.20;7.97;;;;;;;13.89;81.26;101909.09;5093476;28;20081;-72
2021/07/23 02:43:25;;;;;;;16.23;8.07;;;;;;;13.73;82.04;101919.81;5093257;28;20032;-72
2021/07/23 02:45:51;;;;;;;12.93;7.82;;;;;;;13.77;81.55;101912.88;5081306;28;20028;-72
2021/07/23 02:48:16;;;;;;;13.82;7.47;;;;;;;13.80;81.38;101902.44;5092859;28;20035;-72
2021/07/23 02:50:42;;;;;;;12.55;7.78;;;;;;;13.73;81.48;101917.13;5094596;28;20103;-72
2021/07/23 02:53:08;;;;;;;16.10;7.82;;;;;;;13.73;81.12;101909.03;5089402;28;20435;-72
2021/07/23 02:55:34;;;;;;;12.65;7.72;;;;;;;13.74;81.46;101905.28;5079158;28;20032;-72
2021/07/23 02:57:59;;;;;;;14.45;8.00;;;;;;;13.69;81.42;101899.81;5085971;28;20027;-72
2021/07/23 03:00:25;;;;;;;16.80;8.93;;;;;;;13.69;81.46;101905.19;5091296;28;20081;-72
2021/07/23 03:02:50;;;;;;;14.40;7.63;;;;;;;13.68;81.33;101901.69;5092722;28;20098;-72
2021/07/23 03:05:16;;;;;;;14.30;7.97;;;;;;;13.67;81.51;101899.25;5091489;28;20028;-72
2021/07/23 03:07:42;;;;;;;14.95;7.80;;;;;;;13.66;81.40;101905.69;5094095;28;20028;-72
2021/07/23 03:10:08;;;;;;;13.48;8.05;;;;;;;13.60;81.57;101910.13;5079623;28;20030;-72
2021/07/23 03:12:34;;;;;;;12.88;8.25;;;;;;;13.45;82.52;101905.25;5093598;28;20022;-72
2021/07/23 03:15:00;;;;;;;11.57;7.80;;;;;;;13.45;82.26;101899.06;5091318;28;20024;-72
2021/07/23 03:17:25;;;;;;;12.68;7.15;;;;;;;13.48;82.15;101894.03;5092408;28;20055;-72
2021/07/23 03:19:51;;;;;;;11.82;7.78;;;;;;;13.53;81.96;101893.31;5092925;28;20031;-72
2021/07/23 03:22:17;;;;;;;12.45;7.43;;;;;;;13.57;81.52;101903.34;5092173;28;20037;-72
2021/07/23 03:24:42;;;;;;;12.35;7.60;;;;;;;13.59;81.40;101900.41;5083324;28;20019;-72
2021/07/23 03:27:08;;;;;;;15.43;7.45;;;;;;;13.59;81.12;101901.25;5092793;28;20035;-72
2021/07/23 03:29:33;;;;;;;12.85;7.80;;;;;;;13.59;81.30;101887.78;5090123;28;20039;-72
2021/07/23 03:31:59;;;;;;;13.23;7.72;;;;;;;13.54;81.58;101882.31;5090524;28;20020;-72
2021/07/23 03:34:25;;;;;;;15.65;8.65;;;;;;;13.44;81.88;101889.34;5096086;28;20584;-72
2021/07/23 03:36:50;;;;;;;16.52;8.00;;;;;;;13.45;81.95;101890.97;5091027;28;20432;-72
2021/07/23 03:39:15;;;;;;;13.75;7.93;;;;;;;13.45;81.84;101888.28;5079806;28;20091;-72
2021/07/23 03:41:42;;;;;;;20.33;8.75;;;;;;;13.35;83.16;101888.91;5094176;28;20043;-72
2021/07/23 03:44:08;;;;;;;13.13;8.10;;;;;;;13.43;82.50;101893.91;5075326;28;20362;-72
2021/07/23 03:46:33;;;;;;;16.08;8.68;;;;;;;13.49;82.00;101889.47;5091288;28;20114;-72
2021/07/23 03:48:59;;;;;;;14.13;8.38;;;;;;;13.51;82.10;101887.34;5078339;28;21673;-72
2021/07/23 03:51:24;;;;;;;13.43;7.53;;;;;;;13.54;81.99;101887.69;5090197;28;20031;-72
2021/07/23 03:53:50;;;;;;;13.93;8.13;;;;;;;13.61;81.78;101882.97;5096621;28;20051;-72
2021/07/23 03:56:15;;;;;;;18.67;8.52;;;;;;;13.65;81.59;101888.72;5091606;28;20046;-72
2021/07/23 03:58:41;;;;;;;15.73;8.02;;;;;;;13.71;81.50;101884.22;5081536;28;20107;-72
2021/07/23 04:01:06;;;;;;;13.00;7.80;;;;;;;13.78;81.12;101898.34;5091842;28;20052;-72
2021/07/23 04:03:33;;;;;;;12.80;7.88;;;;;;;13.83;80.97;101885.81;5091068;28;20416;-72
2021/07/23 04:05:59;;;;;;;16.75;9.68;;;;;;;13.89;81.25;101886.72;5079804;28;20028;-72
2021/07/23 04:08:24;;;;;;;14.82;9.32;;;;;;;13.92;81.14;101894.31;5094046;28;20031;-72
2021/07/23 04:10:50;;;;;;;15.68;9.25;;;;;;;13.96;81.35;101889.25;5074950;28;20032;-72
2021/07/23 04:13:15;;;;;;;16.35;10.18;;;;;;;14.06;81.16;101887.56;5089479;28;20150;-72
2021/07/23 04:15:41;;;;;;;16.75;10.70;;;;;;;14.11;80.90;101890.34;5082406;28;20036;-72
2021/07/23 04:18:06;;;;;;;15.60;9.80;;;;;;;14.15;80.88;101893.34;5093354;28;20065;-72
2021/07/23 04:20:32;;;;;;;16.40;9.25;;;;;;;14.24;80.75;101886.50;5092662;28;20027;-72
2021/07/23 04:22:57;;;;;;;15.20;10.00;;;;;;;14.35;80.53;101888.28;5094499;28;20453;-72
2021/07/23 04:25:23;;;;;;;16.60;10.32;;;;;;;14.39;80.70;101883.25;5092063;28;20322;-72
2021/07/23 04:27:48;;;;;;;18.10;9.27;;;;;;;14.44;80.69;101889.56;5109334;22;20047;-56
2021/07/23 04:30:16;;;;;;;13.75;9.48;;;;;;;14.52;80.70;101889.13;5108707;28;20558;-55
2021/07/23 04:32:41;;;;;;;16.45;9.48;;;;;;;14.60;80.45;101885.22;5109057;28;20034;-56
2021/07/23 04:35:07;;;;;;;15.70;9.75;;;;;;;14.69;80.47;101899.09;5112371;28;20396;-56
2021/07/23 04:37:33;;;;;;;15.65;9.43;;;;;;;14.77;80.28;101891.41;5113018;28;20392;-56
2021/07/23 04:39:58;;;;;;;15.90;10.07;;;;;;;14.93;80.16;101891.63;5111020;28;20023;-54
2021/07/23 04:42:24;;;;;;;20.27;10.82;;;;;;;15.07;80.02;101887.47;5110014;28;20031;-56
2021/07/23 04:44:49;;;;;;;13.75;9.60;;;;;;;15.24;79.64;101895.53;5111492;28;20487;-56
2021/07/23 04:47:15;;;;;;;15.75;9.38;;;;;;;15.43;78.88;101899.53;5104793;28;20035;-56
2021/07/23 04:49:40;;;;;;;13.70;8.23;;;;;;;15.48;78.90;101894.22;5113340;28;20112;-57
2021/07/23 04:52:06;;;;;;;18.85;10.02;;;;;;;15.55;78.69;101894.81;5110077;28;20028;-57
2021/07/23 04:54:31;;;;;;;12.00;8.55;;;;;;;15.58;78.79;101897.00;5116170;27;20019;-56
2021/07/23 04:56:58;;;;;;;16.55;9.18;;;;;;;15.58;78.55;101888.91;5115217;27;20392;-58
2021/07/23 04:59:23;;;;;;;18.38;9.30;;;;;;;15.58;78.78;101890.78;5113536;27;20027;-56
2021/07/23 05:01:49;;;;;;;14.75;9.40;;;;;;;15.60;79.30;101896.78;5114972;27;20068;-54
2021/07/23 05:04:16;;;;;;;15.20;9.45;;;;;;;15.74;79.05;101899.91;5115769;27;20028;-57
2021/07/23 05:06:41;;;;;;;13.43;9.25;;;;;;;15.94;78.65;101892.00;5114800;27;20031;-56
2021/07/23 05:09:07;;;;;;;15.68;9.27;;;;;;;16.10;78.30;101893.78;5116716;27;20076;-58
2021/07/23 05:11:34;;;;;;;17.23;10.40;;;;;;;16.13;78.25;101892.44;5115410;27;20038;-54
2021/07/23 05:14:01;;;;;;;14.02;10.23;;;;;;;16.19;78.09;101892.25;5113542;27;20019;-56
2021/07/23 05:16:26;;;;;;;18.98;10.65;;;;;;;16.37;78.20;101898.34;5115457;27;20455;-58
2021/07/23 05:18:52;;;;;;;17.60;10.63;;;;;;;16.49;77.86;101891.66;5118460;27;20023;-54
2021/07/23 05:21:18;;;;;;;16.17;10.60;;;;;;;16.58;77.78;101890.09;5116322;27;20529;-58
2021/07/23 05:23:45;;;;;;;18.48;11.68;;;;;;;16.55;78.12;101881.69;5115447;27;20026;-56
2021/07/23 05:26:12;;;;;;;15.50;11.13;;;;;;;16.49;78.64;101886.25;5119866;27;20027;-57
2021/07/23 05:28:38;;;;;;;14.40;9.95;;;;;;;16.57;78.55;101893.06;5100259;27;20038;-58
2021/07/23 05:31:03;;;;;;;16.05;10.27;;;;;;;16.76;78.04;101879.97;5114392;27;20035;-57
2021/07/23 05:33:29;;;;;;;16.50;9.77;;;;;;;16.98;77.42;101887.94;5116115;27;20019;-56
2021/07/23 05:35:54;;;;;;;14.93;9.52;;;;;;;17.16;76.32;101877.47;5114861;27;20449;-55
2021/07/23 05:38:19;;;;;;;16.17;10.15;;;;;;;17.37;75.49;101880.25;5117286;27;20023;-54
2021/07/23 05:40:45;;;;;;;15.02;10.75;;;;;;;17.41;75.82;101870.50;5116409;27;20023;-56
2021/07/23 05:43:13;;;;;;;17.92;10.23;;;;;;;17.44;75.89;101876.22;5115390;27;20027;-56
2021/07/23 05:45:39;;;;;;;17.40;9.88;;;;;;;17.60;75.64;101877.06;5113319;27;20028;-57
2021/07/23 05:48:06;;;;;;;13.80;9.38;;;;;;;17.81;74.72;101875.25;5114266;27;20023;-57
2021/07/23 05:50:31;;;;;;;15.93;9.57;;;;;;;18.00;73.86;101870.09;5113640;27;20027;-56
2021/07/23 05:52:56;;;;;;;13.57;9.20;;;;;;;18.12;73.61;101871.44;5099708;27;20038;-58
2021/07/23 05:55:22;;;;;;;17.27;9.88;;;;;;;18.27;73.01;101878.78;5118932;27;20023;-55
2021/07/23 05:57:48;;;;;;;19.13;10.02;;;;;;;18.42;72.02;101872.53;5117416;27;20031;-57
2021/07/23 06:00:14;;;;;;;19.50;9.80;;;;;;;18.57;71.16;101868.97;5116451;27;20027;-57
2021/07/23 06:02:39;;;;;;;16.38;9.70;;;;;;;18.36;71.54;101874.44;5119053;27;20269;-56
2021/07/23 06:05:06;;;;;;;21.77;10.63;;;;;;;18.60;70.87;101863.81;5115238;27;20373;-56
2021/07/23 06:07:32;;;;;;;17.92;10.15;;;;;;;18.81;70.35;101867.31;5116182;27;20023;-58
2021/07/23 06:09:57;;;;;;;24.08;9.40;;;;;;;18.99;69.82;101861.28;5120942;27;20016;-57
2021/07/23 06:12:22;;;;;;;19.00;10.20;;;;;;;19.19;69.74;101873.16;5115197;27;20023;-56
2021/07/23 06:14:48;;;;;;;17.38;9.63;;;;;;;19.34;69.16;101870.38;5116283;27;20038;-55
2021/07/23 06:17:14;;;;;;;19.45;9.65;;;;;;;19.49;68.69;101862.16;5112956;27;20374;-58
2021/07/23 06:19:41;;;;;;;16.35;9.98;;;;;;;19.65;68.34;101872.97;5113624;27;20073;-56
2021/07/23 06:22:07;;;;;;;14.85;9.73;;;;;;;19.81;68.04;101869.06;5114262;27;20023;-57
2021/07/23 06:24:33;;;;;;;13.70;8.75;;;;;;;19.95;67.72;101872.75;5113647;27;20368;-57
2021/07/23 06:26:59;;;;;;;13.65;9.43;;;;;;;20.07;67.32;101873.19;5113171;27;20051;-56
2021/07/23 06:29:25;;;;;;;16.67;9.90;;;;;;;20.22;66.11;101869.53;5114468;27;20020;-57
2021/07/23 06:31:50;;;;;;;19.23;9.52;;;;;;;20.30;65.88;101871.66;5113929;27;20034;-57
2021/07/23 06:34:16;;;;;;;13.43;9.02;;;;;;;20.40;65.67;101873.44;5112402;27;20491;-58
2021/07/23 06:36:41;;;;;;;14.77;9.50;;;;;;;20.58;65.99;101870.03;5111401;27;20468;-58
2021/07/23 06:39:07;;;;;;;19.83;9.38;;;;;;;20.72;65.41;101872.91;5110513;27;20023;-57
2021/07/23 06:41:32;;;;;;;14.70;9.43;;;;;;;20.95;64.89;101869.34;5110141;27;20041;-58
2021/07/23 06:43:58;;;;;;;15.07;9.23;;;;;;;21.12;64.02;101874.34;5111871;27;20419;-57
2021/07/23 06:46:23;;;;;;;14.10;8.65;;;;;;;21.25;63.44;101868.19;5114068;27;20023;-57
2021/07/23 06:48:49;;;;;;;13.13;8.90;;;;;;;21.38;63.29;101864.75;5119387;27;20032;-58
2021/07/23 06:51:14;;;;;;;14.45;9.30;;;;;;;21.55;62.25;101866.97;5112580;27;20019;-58
2021/07/23 06:53:40;;;;;;;16.80;9.18;;;;;;;21.68;62.25;101862.69;5112889;27;20019;-58
2021/07/23 06:56:06;;;;;;;13.60;9.52;;;;;;;21.60;61.36;101864.19;5109670;27;20407;-58
2021/07/23 06:58:31;;;;;;;16.63;8.60;;;;;;;21.79;60.81;101866.91;5109047;27;20057;-59
2021/07/23 07:01:09;;;;;;;15.75;9.35;;;;;;;22.03;61.20;101867.59;5119990;27;20503;-58
2021/07/23 07:03:35;;;;;;;16.92;8.68;;;;;;;22.30;60.55;101869.63;5116163;27;20047;-58
2021/07/23 07:06:02;;;;;;;14.75;8.75;;;;;;;22.37;58.50;101852.03;5112199;27;20094;-56
2021/07/23 07:08:28;;;;;;;12.38;7.95;;;;;;;22.55;58.12;101854.69;5117509;27;20026;-59
2021/07/23 07:10:53;;;;;;;14.88;9.23;;;;;;;22.71;58.74;101857.13;5115321;27;20076;-58
2021/07/23 07:13:19;;;;;;;11.82;7.90;;;;;;;22.91;57.66;101854.84;5117390;27;20027;-56
2021/07/23 07:15:44;;;;;;;12.07;7.05;;;;;;;22.90;56.31;101860.63;5113626;27;20096;-57
2021/07/23 07:18:09;;;;;;;11.70;8.00;;;;;;;23.04;56.83;101861.41;5110852;27;20030;-57
2021/07/23 07:20:35;;;;;;;11.18;7.57;;;;;;;23.12;55.34;101859.88;5113778;27;20026;-57
2021/07/23 07:23:01;;;;;;;10.00;7.28;;;;;;;23.11;54.74;101856.34;5112053;27;20015;-56
2021/07/23 07:25:27;;;;;;;9.73;7.40;;;;;;;23.21;53.66;101852.59;5109357;27;20053;-57
2021/07/23 07:27:53;;;;;;;14.30;8.35;;;;;;;22.45;51.59;101854.91;5100563;27;20219;-57
2021/07/23 07:30:19;;;;;;;16.10;7.20;;;;;;;22.61;53.67;101861.66;5109765;27;20038;-56
2021/07/23 07:32:45;;;;;;;12.10;7.93;;;;;;;23.19;53.85;101857.56;5111015;27;20019;-57
2021/07/23 07:35:11;;;;;;;12.60;8.00;;;;;;;23.66;54.05;101860.91;5108564;27;20106;-57
2021/07/23 07:37:36;;;;;;;10.85;8.25;;;;;;;24.04;53.52;101859.41;5112147;27;20035;-57
2021/07/23 07:40:02;;;;;;;14.32;6.97;;;;;;;24.30;52.31;101856.88;5111503;27;20028;-57
2021/07/23 07:42:30;;;;;;;16.55;8.38;;;;;;;24.65;51.14;101854.31;5110997;27;20062;-57
2021/07/23 07:44:55;;;;;;;13.57;7.53;;;;;;;24.91;50.54;101849.72;5111098;27;20031;-58
2021/07/23 07:47:21;;;;;;;10.90;7.85;;;;;;;25.09;48.91;101856.06;5107940;27;20034;-57
2021/07/23 07:49:46;;;;;;;10.93;7.95;;;;;;;25.42;48.26;101850.97;5113581;27;20038;-56
2021/07/23 07:52:12;;;;;;;12.05;7.78;;;;;;;25.63;47.53;101850.31;5106164;28;20115;-56
2021/07/23 07:54:37;;;;;;;11.30;6.82;;;;;;;25.66;47.99;101855.97;5112574;28;20084;-58
2021/07/23 07:57:07;;;;;;;13.10;7.40;;;;;;;25.31;47.05;101846.91;5107604;28;20043;-57
2021/07/23 07:59:32;;;;;;;11.70;7.38;;;;;;;25.55;48.05;101841.78;5109264;28;20030;-57
2021/07/23 08:01:58;;;;;;;14.30;7.32;;;;;;;25.94;46.05;101847.44;5106437;28;20027;-58
2021/07/23 08:04:23;;;;;;;12.30;6.53;;;;;;;26.22;45.76;101848.66;5111220;28;20345;-57
2021/07/23 08:06:49;;;;;;;12.82;7.25;;;;;;;26.41;44.94;101845.56;5114180;28;20027;-58
2021/07/23 08:09:15;;;;;;;13.55;7.47;;;;;;;26.36;45.68;101848.47;5118220;28;20019;-58
2021/07/23 08:11:41;;;;;;;10.88;6.85;;;;;;;26.18;45.72;101851.25;5108457;28;20035;-57
2021/07/23 08:14:07;;;;;;;24.45;7.90;;;;;;;26.36;45.60;101841.03;5110620;28;20024;-57
2021/07/23 08:16:33;;;;;;;10.05;7.25;;;;;;;26.68;44.88;101836.06;5113501;28;20046;-57
2021/07/23 08:19:02;;;;;;;10.30;7.20;;;;;;;26.82;44.72;101844.09;5113622;28;20035;-58
2021/07/23 08:21:31;;;;;;;8.93;6.72;;;;;;;26.75;44.37;101842.69;5111450;28;20023;-58
2021/07/23 08:23:59;;;;;;;10.40;6.32;;;;;;;26.68;43.75;101836.88;5111752;28;20103;-57
2021/07/23 08:26:25;;;;;;;10.52;6.90;;;;;;;26.93;43.50;101837.06;5107927;28;20027;-57
2021/07/23 08:28:50;;;;;;;11.23;6.50;;;;;;;27.12;44.60;101828.41;5107855;27;20154;-58
2021/07/23 08:31:16;;;;;;;10.93;7.07;;;;;;;27.24;42.55;101843.03;5111086;27;20264;-57
2021/07/23 08:33:42;;;;;;;9.50;6.78;;;;;;;27.50;42.97;101831.03;5113633;27;20058;-58
2021/07/23 08:36:08;;;;;;;8.63;6.53;;;;;;;27.67;41.94;101836.41;5114163;27;20035;-58
2021/07/23 08:38:34;;;;;;;12.85;6.70;;;;;;;27.90;42.80;101832.13;5115452;27;20031;-57
2021/07/23 08:40:59;;;;;;;11.95;7.40;;;;;;;27.19;42.10;101829.47;5117235;27;20281;-56
2021/07/23 08:43:25;;;;;;;12.82;7.85;;;;;;;26.25;41.72;101833.47;5114846;27;20028;-58
2021/07/23 08:45:51;;;;;;;9.25;6.60;;;;;;;26.61;43.38;101828.34;5117861;27;20450;-58
2021/07/23 08:48:16;;;;;;;10.23;6.72;;;;;;;26.95;43.13;101818.31;5116741;27;20023;-57
2021/07/23 08:50:42;;;;;;;10.18;7.20;;;;;;;27.56;40.82;101833.22;5115008;27;20034;-58
2021/07/23 08:53:11;;;;;;;10.38;7.40;;;;;;;28.03;41.28;101833.00;5105882;27;20024;-55
2021/07/23 08:55:38;;;;;;;8.50;6.70;;;;;;;28.40;40.39;101822.88;5115882;27;20038;-58
2021/07/23 08:58:07;;;;;;;10.18;6.88;;;;;;;28.55;39.60;101824.94;5110279;27;20485;-58
2021/07/23 09:00:33;;;;;;;10.45;6.25;;;;;;;28.73;39.44;101824.72;5114487;27;20042;-58
2021/07/23 09:03:04;;;;;;;13.88;7.05;;;;;;;28.61;37.82;101827.47;5115322;27;20038;-58
2021/07/23 09:05:41;;;;;;;10.30;6.82;;;;;;;28.77;37.92;101811.84;5099077;27;20087;-58
2021/07/23 09:08:17;;;;;;;9.35;6.22;;;;;;;29.03;37.87;101820.56;5113832;27;20106;-57
2021/07/23 09:10:44;;;;;;;10.68;6.60;;;;;;;28.99;37.89;101816.88;5117269;27;20032;-58
2021/07/23 09:13:11;;;;;;;8.02;6.15;;;;;;;29.32;36.67;101813.94;5113518;27;20058;-58
2021/07/23 09:15:43;;;;;;;7.45;6.00;;;;;;;29.29;36.95;101808.31;5116149;27;20032;-58
2021/07/23 09:18:31;;;;;;;10.32;6.95;;;;;;;28.95;36.40;101815.97;5115759;27;20053;-58
2021/07/23 09:21:06;;;;;;;7.65;5.95;;;;;;;28.23;35.36;101812.03;5099814;27;20361;-58
2021/07/23 09:23:37;;;;;;;10.32;6.25;;;;;;;28.12;37.64;101810.84;5114710;27;20247;-58
2021/07/23 09:26:08;;;;;;;11.05;6.57;;;;;;;27.92;38.32;101815.28;5117229;27;20056;-58
2021/07/23 09:28:42;;;;;;;7.00;5.20;;;;;;;27.81;38.01;101812.13;5112064;27;20736;-58
2021/07/23 09:31:22;;;;;;;8.40;5.18;;;;;;;26.50;38.85;101805.09;5113030;27;21262;-58
2021/07/23 09:33:52;;;;;;;7.85;5.53;;;;;;;26.75;39.32;101804.19;5113097;27;20101;-55
2021/07/23 09:36:18;;;;;;;8.13;5.38;;;;;;;26.86;39.62;101803.78;5111453;27;20362;-57
2021/07/23 09:38:45;;;;;;;8.52;5.95;;;;;;;26.57;38.38;101797.16;5100689;27;20026;-58
2021/07/23 09:41:23;;;;;;;6.97;5.63;;;;;;;26.75;37.27;101803.34;5113977;27;20020;-56
2021/07/23 09:44:07;;;;;;;9.57;5.20;;;;;;;27.12;38.53;101800.91;5111973;27;20032;-57
2021/07/23 09:46:41;;;;;;;9.65;5.50;;;;;;;27.30;36.94;101802.38;5112692;27;20039;-57
2021/07/23 09:49:24;;;;;;;6.40;5.78;;;;;;;27.42;36.87;101804.38;5113854;27;20106;-57
2021/07/23 09:51:50;;;;;;;7.93;5.93;;;;;;;26.79;38.04;101796.88;5112217;27;20652;-56
2021/07/23 09:54:18;;;;;;;9.35;6.03;;;;;;;26.39;38.17;101801.09;5112115;27;20034;-57
2021/07/23 09:56:45;;;;;;;7.90;5.75;;;;;;;27.02;37.54;101799.34;5111330;27;20055;-56
2021/07/23 09:59:51;;;;;;;12.95;5.47;;;;;;;27.75;36.58;101793.41;5113354;27;20503;-55
2021/07/23 10:02:21;;;;;;;8.80;5.28;;;;;;;27.96;35.46;101794.97;5111259;27;20437;-57
2021/07/23 10:05:07;;;;;;;7.45;5.50;;;;;;;27.37;35.38;101797.13;5110969;27;20032;-57
2021/07/23 10:07:58;;;;;;;10.20;5.40;;;;;;;26.99;37.49;101797.25;5112823;27;20057;-58
2021/07/23 10:10:25;;;;;;;8.45;5.88;;;;;;;27.27;36.66;101783.78;5111231;27;20028;-57
2021/07/23 10:12:53;;;;;;;7.70;5.38;;;;;;;27.84;36.62;101789.44;5110389;27;20480;-58
2021/07/23 10:15:19;;;;;;;7.97;6.20;;;;;;;27.53;36.10;101784.38;5111330;27;20031;-57
2021/07/23 10:17:47;;;;;;;8.70;5.88;;;;;;;26.80;37.58;101778.44;5112241;27;20016;-57
2021/07/23 10:20:13;;;;;;;7.63;5.85;;;;;;;27.01;37.52;101778.47;5113097;27;20380;-56
2021/07/23 10:22:40;;;;;;;6.78;5.38;;;;;;;27.63;37.39;101772.94;5117482;27;20555;-57
2021/07/23 10:25:07;;;;;;;7.75;5.55;;;;;;;28.11;37.22;101776.97;5112040;27;20030;-57
2021/07/23 10:27:32;;;;;;;7.13;5.82;;;;;;;27.29;37.13;101771.31;5110356;27;20035;-57
2021/07/23 10:29:58;;;;;;;6.78;5.68;;;;;;;27.55;36.05;101775.78;5108714;27;20030;-57
2021/07/23 10:32:26;;;;;;;7.70;5.47;;;;;;;27.78;36.97;101768.75;5108685;27;20381;-57
2021/07/23 10:34:54;;;;;;;9.98;5.38;;;;;;;26.56;37.91;101773.53;5111343;27;20088;-58
2021/07/23 10:37:28;;;;;;;8.85;5.90;;;;;;;25.96;38.36;101765.53;5110506;27;20033;-57
2021/07/23 10:40:13;;;;;;;10.23;6.35;;;;;;;25.59;39.79;101774.13;5110067;27;20103;-57
2021/07/23 10:42:42;;;;;;;8.32;5.90;;;;;;;25.55;40.11;101775.91;5113567;27;20657;-57
2021/07/23 10:45:12;;;;;;;9.35;6.20;;;;;;;25.41;40.73;101779.97;5110893;27;20027;-57
2021/07/23 10:47:41;;;;;;;7.78;5.65;;;;;;;25.11;40.12;101770.75;5091555;27;20108;-57
2021/07/23 10:50:35;;;;;;;9.07;5.72;;;;;;;25.75;40.66;101774.47;5109195;27;20023;-56
2021/07/23 10:53:25;;;;;;;7.28;5.03;;;;;;;26.01;38.42;101774.38;5106554;27;20110;-57
2021/07/23 10:55:52;;;;;;;11.25;5.20;;;;;;;26.62;38.22;101765.94;5099959;28;20052;-56
2021/07/23 10:58:20;;;;;;;8.75;5.72;;;;;;;26.95;38.19;101758.59;5108528;27;20126;-57
2021/07/23 11:00:48;;;;;;;8.30;5.93;;;;;;;27.56;37.39;101755.34;5111163;27;20081;-56
2021/07/23 11:03:36;;;;;;;8.60;6.15;;;;;;;26.60;37.21;101759.97;5108334;27;20579;-57
2021/07/23 11:06:20;;;;;;;10.57;6.07;;;;;;;26.86;38.07;101749.59;5110871;27;20207;-56
2021/07/23 11:08:53;;;;;;;9.98;6.13;;;;;;;27.40;36.80;101755.97;5108079;27;20024;-57
2021/07/23 11:11:20;;;;;;;7.97;5.95;;;;;;;27.72;34.62;101748.09;5108471;27;20019;-57
2021/07/23 11:13:46;;;;;;;8.30;6.05;;;;;;;27.01;36.11;101756.47;5107367;27;20038;-57
2021/07/23 11:16:22;;;;;;;9.85;6.80;;;;;;;26.46;37.18;101754.69;5111486;27;20027;-56
2021/07/23 11:18:54;;;;;;;9.73;6.75;;;;;;;25.73;38.50;101753.97;5110058;27;20019;-57
2021/07/23 11:21:21;;;;;;;7.95;5.95;;;;;;;25.90;38.49;101748.44;5108177;27;20531;-55